sensor_id;sensor_type;location;lat;lon;timestamp;P1;durP1;ratioP1;P2;durP2;ratioP2
16199;SDS011;8207;52.494;4.654;2023-06-22T00:00:43;15.35;;;13.75;;
16199;SDS011;8207;52.494;4.654;2023-06-22T00:03:10;15.10;;;13.50;;
16199;SDS011;8207;52.494;4.654;2023-06-22T00:05:37;15.15;;;13.55;;
16199;SDS011;8207;52.494;4.654;2023-06-22T00:08:04;14.02;;;12.50;;
16199;SDS011;8207;52.494;4.654;2023-06-22T00:10:32;16.80;;;14.48;;
16199;SDS011;8207;52.494;4.654;2023-06-22T00:13:00;17.70;;;15.88;;
16199;SDS011;8207;52.494;4.654;2023-06-22T00:15:27;15.95;;;14.27;;
16199;SDS011;8207;52.494;4.654;2023-06-22T00:17:54;16.40;;;14.68;;
16199;SDS011;8207;52.494;4.654;2023-06-22T00:20:23;15.35;;;13.75;;
16199;SDS011;8207;52.494;4.654;2023-06-22T00:22:53;13.80;;;12.48;;
16199;SDS011;8207;52.494;4.654;2023-06-22T00:25:20;14.32;;;12.85;;
16199;SDS011;8207;52.494;4.654;2023-06-22T00:27:48;18.63;;;15.90;;
16199;SDS011;8207;52.494;4.654;2023-06-22T00:30:16;16.77;;;14.27;;
16199;SDS011;8207;52.494;4.654;2023-06-22T00:32:44;17.73;;;15.82;;
16199;SDS011;8207;52.494;4.654;2023-06-22T00:35:12;18.05;;;15.15;;
16199;SDS011;8207;52.494;4.654;2023-06-22T00:37:39;24.30;;;19.98;;
16199;SDS011;8207;52.494;4.654;2023-06-22T00:40:07;19.95;;;16.73;;
16199;SDS011;8207;52.494;4.654;2023-06-22T00:42:36;16.63;;;14.82;;
16199;SDS011;8207;52.494;4.654;2023-06-22T00:45:05;18.50;;;16.58;;
16199;SDS011;8207;52.494;4.654;2023-06-22T00:47:32;20.33;;;17.52;;
16199;SDS011;8207;52.494;4.654;2023-06-22T00:50:01;16.05;;;14.40;;
16199;SDS011;8207;52.494;4.654;2023-06-22T00:52:30;16.38;;;14.63;;
16199;SDS011;8207;52.494;4.654;2023-06-22T00:55:00;18.65;;;15.93;;
16199;SDS011;8207;52.494;4.654;2023-06-22T00:57:28;22.45;;;18.92;;
16199;SDS011;8207;52.494;4.654;2023-06-22T00:59:56;27.38;;;23.00;;
16199;SDS011;8207;52.494;4.654;2023-06-22T01:02:24;27.88;;;22.63;;
16199;SDS011;8207;52.494;4.654;2023-06-22T01:04:51;21.20;;;18.73;;
16199;SDS011;8207;52.494;4.654;2023-06-22T01:07:21;20.38;;;17.95;;
16199;SDS011;8207;52.494;4.654;2023-06-22T01:09:57;27.33;;;22.33;;
16199;SDS011;8207;52.494;4.654;2023-06-22T01:12:30;30.67;;;25.65;;
16199;SDS011;8207;52.494;4.654;2023-06-22T01:15:02;27.13;;;23.00;;
16199;SDS011;8207;52.494;4.654;2023-06-22T01:17:37;26.48;;;22.83;;
16199;SDS011;8207;52.494;4.654;2023-06-22T01:20:09;23.60;;;19.98;;
16199;SDS011;8207;52.494;4.654;2023-06-22T01:22:40;24.08;;;21.48;;
16199;SDS011;8207;52.494;4.654;2023-06-22T01:25:19;20.75;;;18.55;;
16199;SDS011;8207;52.494;4.654;2023-06-22T01:27:53;21.42;;;18.50;;
16199;SDS011;8207;52.494;4.654;2023-06-22T01:30:30;22.90;;;19.65;;
16199;SDS011;8207;52.494;4.654;2023-06-22T01:33:00;29.67;;;24.35;;
16199;SDS011;8207;52.494;4.654;2023-06-22T01:35:29;26.70;;;21.70;;
16199;SDS011;8207;52.494;4.654;2023-06-22T01:37:57;28.58;;;22.52;;
16199;SDS011;8207;52.494;4.654;2023-06-22T01:40:24;21.35;;;18.05;;
16199;SDS011;8207;52.494;4.654;2023-06-22T01:42:52;22.83;;;19.33;;
16199;SDS011;8207;52.494;4.654;2023-06-22T01:45:20;23.08;;;19.33;;
16199;SDS011;8207;52.494;4.654;2023-06-22T01:47:49;21.83;;;18.33;;
16199;SDS011;8207;52.494;4.654;2023-06-22T01:50:16;23.45;;;19.55;;
16199;SDS011;8207;52.494;4.654;2023-06-22T01:52:43;23.15;;;19.30;;
16199;SDS011;8207;52.494;4.654;2023-06-22T01:55:10;23.38;;;19.25;;
16199;SDS011;8207;52.494;4.654;2023-06-22T01:57:38;20.60;;;16.83;;
16199;SDS011;8207;52.494;4.654;2023-06-22T02:00:07;18.95;;;16.15;;
16199;SDS011;8207;52.494;4.654;2023-06-22T02:02:38;29.15;;;22.38;;
16199;SDS011;8207;52.494;4.654;2023-06-22T02:05:11;22.27;;;17.77;;
16199;SDS011;8207;52.494;4.654;2023-06-22T02:07:41;23.90;;;19.50;;
16199;SDS011;8207;52.494;4.654;2023-06-22T02:10:16;19.35;;;17.25;;
16199;SDS011;8207;52.494;4.654;2023-06-22T02:12:46;18.83;;;16.15;;
16199;SDS011;8207;52.494;4.654;2023-06-22T02:15:14;20.98;;;17.52;;
16199;SDS011;8207;52.494;4.654;2023-06-22T02:17:42;16.95;;;15.05;;
16199;SDS011;8207;52.494;4.654;2023-06-22T02:20:13;19.85;;;17.00;;
16199;SDS011;8207;52.494;4.654;2023-06-22T02:22:41;18.23;;;16.10;;
16199;SDS011;8207;52.494;4.654;2023-06-22T02:25:08;17.05;;;15.25;;
16199;SDS011;8207;52.494;4.654;2023-06-22T02:27:35;18.05;;;16.08;;
16199;SDS011;8207;52.494;4.654;2023-06-22T02:30:05;18.30;;;15.95;;
16199;SDS011;8207;52.494;4.654;2023-06-22T02:32:33;21.13;;;17.23;;
16199;SDS011;8207;52.494;4.654;2023-06-22T02:35:00;19.08;;;16.92;;
16199;SDS011;8207;52.494;4.654;2023-06-22T02:37:30;21.60;;;18.38;;
16199;SDS011;8207;52.494;4.654;2023-06-22T02:39:57;19.42;;;17.30;;
16199;SDS011;8207;52.494;4.654;2023-06-22T02:42:24;16.80;;;15.00;;
16199;SDS011;8207;52.494;4.654;2023-06-22T02:44:51;14.75;;;13.20;;
16199;SDS011;8207;52.494;4.654;2023-06-22T02:47:18;13.93;;;12.48;;
16199;SDS011;8207;52.494;4.654;2023-06-22T02:49:45;20.10;;;16.02;;
16199;SDS011;8207;52.494;4.654;2023-06-22T02:52:12;17.67;;;15.25;;
16199;SDS011;8207;52.494;4.654;2023-06-22T02:54:40;17.48;;;15.05;;
16199;SDS011;8207;52.494;4.654;2023-06-22T02:57:07;17.83;;;15.70;;
16199;SDS011;8207;52.494;4.654;2023-06-22T02:59:38;19.70;;;17.48;;
16199;SDS011;8207;52.494;4.654;2023-06-22T03:02:05;18.42;;;16.40;;
16199;SDS011;8207;52.494;4.654;2023-06-22T03:04:33;25.15;;;20.55;;
16199;SDS011;8207;52.494;4.654;2023-06-22T03:07:00;23.52;;;19.65;;
16199;SDS011;8207;52.494;4.654;2023-06-22T03:09:27;20.55;;;17.73;;
16199;SDS011;8207;52.494;4.654;2023-06-22T03:11:56;19.30;;;16.30;;
16199;SDS011;8207;52.494;4.654;2023-06-22T03:14:23;20.70;;;17.90;;
16199;SDS011;8207;52.494;4.654;2023-06-22T03:16:50;20.70;;;16.85;;
16199;SDS011;8207;52.494;4.654;2023-06-22T03:19:17;20.35;;;17.50;;
16199;SDS011;8207;52.494;4.654;2023-06-22T03:21:44;19.23;;;15.65;;
16199;SDS011;8207;52.494;4.654;2023-06-22T03:24:11;29.63;;;22.38;;
16199;SDS011;8207;52.494;4.654;2023-06-22T03:26:38;22.85;;;19.85;;
16199;SDS011;8207;52.494;4.654;2023-06-22T03:29:06;18.88;;;16.85;;
16199;SDS011;8207;52.494;4.654;2023-06-22T03:31:33;19.63;;;16.52;;
16199;SDS011;8207;52.494;4.654;2023-06-22T03:34:00;20.83;;;18.50;;
16199;SDS011;8207;52.494;4.654;2023-06-22T03:36:27;21.85;;;17.67;;
16199;SDS011;8207;52.494;4.654;2023-06-22T03:38:55;22.25;;;19.38;;
16199;SDS011;8207;52.494;4.654;2023-06-22T03:41:22;25.33;;;19.90;;
16199;SDS011;8207;52.494;4.654;2023-06-22T03:43:50;28.92;;;21.60;;
16199;SDS011;8207;52.494;4.654;2023-06-22T03:46:18;28.42;;;23.08;;
16199;SDS011;8207;52.494;4.654;2023-06-22T03:48:46;27.60;;;21.38;;
16199;SDS011;8207;52.494;4.654;2023-06-22T03:51:13;25.85;;;21.83;;
16199;SDS011;8207;52.494;4.654;2023-06-22T03:53:40;29.85;;;23.10;;
16199;SDS011;8207;52.494;4.654;2023-06-22T03:56:06;35.47;;;27.55;;
16199;SDS011;8207;52.494;4.654;2023-06-22T03:58:33;33.22;;;27.40;;
16199;SDS011;8207;52.494;4.654;2023-06-22T04:01:02;33.85;;;26.30;;
16199;SDS011;8207;52.494;4.654;2023-06-22T04:03:30;31.35;;;25.38;;
16199;SDS011;8207;52.494;4.654;2023-06-22T04:05:57;32.80;;;25.35;;
16199;SDS011;8207;52.494;4.654;2023-06-22T04:08:24;36.90;;;27.42;;
16199;SDS011;8207;52.494;4.654;2023-06-22T04:10:51;38.58;;;30.10;;
16199;SDS011;8207;52.494;4.654;2023-06-22T04:13:18;35.35;;;27.85;;
16199;SDS011;8207;52.494;4.654;2023-06-22T04:15:45;35.63;;;26.63;;
16199;SDS011;8207;52.494;4.654;2023-06-22T04:18:12;44.20;;;32.60;;
16199;SDS011;8207;52.494;4.654;2023-06-22T04:20:41;36.28;;;29.30;;
16199;SDS011;8207;52.494;4.654;2023-06-22T04:23:12;35.53;;;27.02;;
16199;SDS011;8207;52.494;4.654;2023-06-22T04:25:38;39.22;;;29.85;;
16199;SDS011;8207;52.494;4.654;2023-06-22T04:28:05;43.25;;;31.55;;
16199;SDS011;8207;52.494;4.654;2023-06-22T04:30:37;39.00;;;28.98;;
16199;SDS011;8207;52.494;4.654;2023-06-22T04:33:11;36.47;;;28.00;;
16199;SDS011;8207;52.494;4.654;2023-06-22T04:35:38;39.63;;;30.17;;
16199;SDS011;8207;52.494;4.654;2023-06-22T04:38:07;36.00;;;27.95;;
16199;SDS011;8207;52.494;4.654;2023-06-22T04:40:34;43.75;;;32.53;;
16199;SDS011;8207;52.494;4.654;2023-06-22T04:43:01;50.17;;;35.28;;
16199;SDS011;8207;52.494;4.654;2023-06-22T04:45:31;45.00;;;34.78;;
16199;SDS011;8207;52.494;4.654;2023-06-22T04:47:58;41.80;;;32.78;;
16199;SDS011;8207;52.494;4.654;2023-06-22T04:50:25;41.17;;;31.45;;
16199;SDS011;8207;52.494;4.654;2023-06-22T04:52:54;42.67;;;31.75;;
16199;SDS011;8207;52.494;4.654;2023-06-22T04:55:21;42.00;;;30.33;;
16199;SDS011;8207;52.494;4.654;2023-06-22T04:57:48;46.20;;;34.67;;
16199;SDS011;8207;52.494;4.654;2023-06-22T05:00:15;46.03;;;33.55;;
16199;SDS011;8207;52.494;4.654;2023-06-22T05:02:44;42.78;;;31.40;;
16199;SDS011;8207;52.494;4.654;2023-06-22T05:05:12;40.22;;;30.67;;
16199;SDS011;8207;52.494;4.654;2023-06-22T05:07:40;37.63;;;29.27;;
16199;SDS011;8207;52.494;4.654;2023-06-22T05:10:10;39.80;;;30.35;;
16199;SDS011;8207;52.494;4.654;2023-06-22T05:12:38;48.53;;;35.60;;
16199;SDS011;8207;52.494;4.654;2023-06-22T05:15:05;42.05;;;32.42;;
16199;SDS011;8207;52.494;4.654;2023-06-22T05:17:33;45.83;;;33.45;;
16199;SDS011;8207;52.494;4.654;2023-06-22T05:20:01;37.58;;;29.88;;
16199;SDS011;8207;52.494;4.654;2023-06-22T05:22:31;43.42;;;32.55;;
16199;SDS011;8207;52.494;4.654;2023-06-22T05:24:58;38.20;;;29.60;;
16199;SDS011;8207;52.494;4.654;2023-06-22T05:27:26;41.38;;;32.47;;
16199;SDS011;8207;52.494;4.654;2023-06-22T05:29:53;38.42;;;29.17;;
16199;SDS011;8207;52.494;4.654;2023-06-22T05:32:20;33.92;;;27.80;;
16199;SDS011;8207;52.494;4.654;2023-06-22T05:34:47;32.70;;;26.92;;
16199;SDS011;8207;52.494;4.654;2023-06-22T05:37:14;31.90;;;27.00;;
16199;SDS011;8207;52.494;4.654;2023-06-22T05:39:41;29.83;;;26.73;;
16199;SDS011;8207;52.494;4.654;2023-06-22T05:42:08;31.92;;;25.88;;
16199;SDS011;8207;52.494;4.654;2023-06-22T05:44:37;30.50;;;25.33;;
16199;SDS011;8207;52.494;4.654;2023-06-22T05:47:05;28.25;;;23.02;;
16199;SDS011;8207;52.494;4.654;2023-06-22T05:49:32;30.85;;;26.15;;
16199;SDS011;8207;52.494;4.654;2023-06-22T05:51:59;28.77;;;23.77;;
16199;SDS011;8207;52.494;4.654;2023-06-22T05:54:27;31.58;;;24.33;;
16199;SDS011;8207;52.494;4.654;2023-06-22T05:56:54;31.30;;;25.13;;
16199;SDS011;8207;52.494;4.654;2023-06-22T05:59:21;26.70;;;23.33;;
16199;SDS011;8207;52.494;4.654;2023-06-22T06:01:49;23.23;;;20.92;;
16199;SDS011;8207;52.494;4.654;2023-06-22T06:04:16;30.00;;;25.30;;
16199;SDS011;8207;52.494;4.654;2023-06-22T06:06:44;30.10;;;26.00;;
16199;SDS011;8207;52.494;4.654;2023-06-22T06:09:12;23.15;;;20.83;;
16199;SDS011;8207;52.494;4.654;2023-06-22T06:11:39;26.05;;;21.30;;
16199;SDS011;8207;52.494;4.654;2023-06-22T06:14:06;29.15;;;24.95;;
16199;SDS011;8207;52.494;4.654;2023-06-22T06:16:33;28.20;;;24.85;;
16199;SDS011;8207;52.494;4.654;2023-06-22T06:19:01;28.80;;;25.65;;
16199;SDS011;8207;52.494;4.654;2023-06-22T06:21:28;29.17;;;26.17;;
16199;SDS011;8207;52.494;4.654;2023-06-22T06:23:55;26.80;;;23.90;;
16199;SDS011;8207;52.494;4.654;2023-06-22T06:26:22;24.10;;;21.27;;
16199;SDS011;8207;52.494;4.654;2023-06-22T06:28:53;28.58;;;25.42;;
16199;SDS011;8207;52.494;4.654;2023-06-22T06:31:20;27.95;;;24.80;;
16199;SDS011;8207;52.494;4.654;2023-06-22T06:33:48;27.83;;;24.48;;
16199;SDS011;8207;52.494;4.654;2023-06-22T06:36:16;24.88;;;21.75;;
16199;SDS011;8207;52.494;4.654;2023-06-22T06:38:43;25.52;;;23.00;;
16199;SDS011;8207;52.494;4.654;2023-06-22T06:41:12;28.00;;;24.95;;
16199;SDS011;8207;52.494;4.654;2023-06-22T06:43:39;23.15;;;20.65;;
16199;SDS011;8207;52.494;4.654;2023-06-22T06:46:07;26.17;;;23.23;;
16199;SDS011;8207;52.494;4.654;2023-06-22T06:48:34;31.40;;;25.35;;
16199;SDS011;8207;52.494;4.654;2023-06-22T06:51:01;24.65;;;22.10;;
16199;SDS011;8207;52.494;4.654;2023-06-22T06:53:30;23.38;;;20.90;;
16199;SDS011;8207;52.494;4.654;2023-06-22T06:55:56;25.60;;;21.88;;
16199;SDS011;8207;52.494;4.654;2023-06-22T06:58:23;25.55;;;22.85;;
16199;SDS011;8207;52.494;4.654;2023-06-22T07:00:50;22.67;;;20.30;;
16199;SDS011;8207;52.494;4.654;2023-06-22T07:03:17;25.02;;;22.25;;
16199;SDS011;8207;52.494;4.654;2023-06-22T07:05:44;22.38;;;20.10;;
16199;SDS011;8207;52.494;4.654;2023-06-22T07:08:11;23.45;;;21.05;;
16199;SDS011;8207;52.494;4.654;2023-06-22T07:10:40;26.40;;;23.23;;
16199;SDS011;8207;52.494;4.654;2023-06-22T07:13:06;22.92;;;20.63;;
16199;SDS011;8207;52.494;4.654;2023-06-22T07:15:33;23.35;;;20.80;;
16199;SDS011;8207;52.494;4.654;2023-06-22T07:18:00;20.60;;;18.40;;
16199;SDS011;8207;52.494;4.654;2023-06-22T07:20:27;22.77;;;20.48;;
16199;SDS011;8207;52.494;4.654;2023-06-22T07:22:54;20.10;;;18.00;;
16199;SDS011;8207;52.494;4.654;2023-06-22T07:25:22;18.38;;;16.30;;
16199;SDS011;8207;52.494;4.654;2023-06-22T07:27:58;18.40;;;16.55;;
16199;SDS011;8207;52.494;4.654;2023-06-22T07:30:26;17.83;;;14.73;;
16199;SDS011;8207;52.494;4.654;2023-06-22T07:32:54;14.80;;;13.38;;
16199;SDS011;8207;52.494;4.654;2023-06-22T07:35:21;18.45;;;16.60;;
16199;SDS011;8207;52.494;4.654;2023-06-22T07:37:48;21.55;;;17.48;;
16199;SDS011;8207;52.494;4.654;2023-06-22T07:40:15;17.35;;;13.80;;
16199;SDS011;8207;52.494;4.654;2023-06-22T07:42:43;14.35;;;12.02;;
16199;SDS011;8207;52.494;4.654;2023-06-22T07:45:14;11.48;;;10.20;;
16199;SDS011;8207;52.494;4.654;2023-06-22T07:47:41;10.23;;;8.10;;
16199;SDS011;8207;52.494;4.654;2023-06-22T07:50:08;9.55;;;8.25;;
16199;SDS011;8207;52.494;4.654;2023-06-22T07:52:36;11.85;;;10.65;;
16199;SDS011;8207;52.494;4.654;2023-06-22T07:55:04;10.63;;;8.95;;
16199;SDS011;8207;52.494;4.654;2023-06-22T07:57:31;11.93;;;10.40;;
16199;SDS011;8207;52.494;4.654;2023-06-22T08:00:01;14.07;;;11.73;;
16199;SDS011;8207;52.494;4.654;2023-06-22T08:02:37;13.55;;;12.25;;
16199;SDS011;8207;52.494;4.654;2023-06-22T08:05:05;15.63;;;14.02;;
16199;SDS011;8207;52.494;4.654;2023-06-22T08:07:33;15.30;;;13.68;;
16199;SDS011;8207;52.494;4.654;2023-06-22T08:10:00;13.68;;;12.27;;
16199;SDS011;8207;52.494;4.654;2023-06-22T08:12:27;15.15;;;13.63;;
16199;SDS011;8207;52.494;4.654;2023-06-22T08:14:54;17.90;;;16.17;;
16199;SDS011;8207;52.494;4.654;2023-06-22T08:17:22;19.70;;;17.83;;
16199;SDS011;8207;52.494;4.654;2023-06-22T08:19:50;21.73;;;19.65;;
16199;SDS011;8207;52.494;4.654;2023-06-22T08:22:17;22.85;;;20.60;;
16199;SDS011;8207;52.494;4.654;2023-06-22T08:24:44;24.55;;;22.35;;
16199;SDS011;8207;52.494;4.654;2023-06-22T08:27:11;21.05;;;19.05;;
16199;SDS011;8207;52.494;4.654;2023-06-22T08:29:39;23.35;;;21.05;;
16199;SDS011;8207;52.494;4.654;2023-06-22T08:32:08;22.50;;;20.45;;
16199;SDS011;8207;52.494;4.654;2023-06-22T08:34:36;19.95;;;18.10;;
16199;SDS011;8207;52.494;4.654;2023-06-22T08:37:08;19.20;;;17.45;;
16199;SDS011;8207;52.494;4.654;2023-06-22T08:39:35;16.92;;;15.27;;
16199;SDS011;8207;52.494;4.654;2023-06-22T08:42:02;18.02;;;16.27;;
16199;SDS011;8207;52.494;4.654;2023-06-22T08:44:29;19.00;;;17.08;;
16199;SDS011;8207;52.494;4.654;2023-06-22T08:46:56;18.70;;;16.77;;
16199;SDS011;8207;52.494;4.654;2023-06-22T08:49:23;16.80;;;15.00;;
16199;SDS011;8207;52.494;4.654;2023-06-22T08:51:50;15.27;;;13.88;;
16199;SDS011;8207;52.494;4.654;2023-06-22T08:54:20;15.35;;;13.85;;
16199;SDS011;8207;52.494;4.654;2023-06-22T08:56:47;15.32;;;13.75;;
16199;SDS011;8207;52.494;4.654;2023-06-22T08:59:14;17.35;;;15.15;;
16199;SDS011;8207;52.494;4.654;2023-06-22T09:01:41;18.52;;;15.90;;
16199;SDS011;8207;52.494;4.654;2023-06-22T09:04:10;12.38;;;11.27;;
16199;SDS011;8207;52.494;4.654;2023-06-22T09:06:37;13.25;;;11.90;;
16199;SDS011;8207;52.494;4.654;2023-06-22T09:09:11;13.50;;;12.07;;
16199;SDS011;8207;52.494;4.654;2023-06-22T09:11:40;13.90;;;12.50;;
16199;SDS011;8207;52.494;4.654;2023-06-22T09:14:07;13.75;;;12.35;;
16199;SDS011;8207;52.494;4.654;2023-06-22T09:16:34;17.95;;;16.05;;
16199;SDS011;8207;52.494;4.654;2023-06-22T09:19:01;14.60;;;13.10;;
16199;SDS011;8207;52.494;4.654;2023-06-22T09:21:29;11.35;;;9.68;;
16199;SDS011;8207;52.494;4.654;2023-06-22T09:23:56;13.55;;;11.85;;
16199;SDS011;8207;52.494;4.654;2023-06-22T09:26:22;16.00;;;14.13;;
16199;SDS011;8207;52.494;4.654;2023-06-22T09:28:51;15.15;;;13.65;;
16199;SDS011;8207;52.494;4.654;2023-06-22T09:31:18;12.70;;;11.48;;
16199;SDS011;8207;52.494;4.654;2023-06-22T09:33:50;15.70;;;11.52;;
16199;SDS011;8207;52.494;4.654;2023-06-22T09:36:17;12.15;;;10.82;;
16199;SDS011;8207;52.494;4.654;2023-06-22T09:38:44;13.15;;;11.43;;
16199;SDS011;8207;52.494;4.654;2023-06-22T09:41:11;15.90;;;14.25;;
16199;SDS011;8207;52.494;4.654;2023-06-22T09:43:38;13.60;;;11.73;;
16199;SDS011;8207;52.494;4.654;2023-06-22T09:46:06;13.05;;;11.15;;
16199;SDS011;8207;52.494;4.654;2023-06-22T09:48:34;14.30;;;12.70;;
16199;SDS011;8207;52.494;4.654;2023-06-22T09:51:01;11.93;;;10.68;;
16199;SDS011;8207;52.494;4.654;2023-06-22T09:53:28;13.90;;;12.52;;
16199;SDS011;8207;52.494;4.654;2023-06-22T09:55:55;12.55;;;11.25;;
16199;SDS011;8207;52.494;4.654;2023-06-22T09:58:22;11.98;;;10.73;;
16199;SDS011;8207;52.494;4.654;2023-06-22T10:00:49;13.57;;;10.90;;
16199;SDS011;8207;52.494;4.654;2023-06-22T10:03:17;12.60;;;9.80;;
16199;SDS011;8207;52.494;4.654;2023-06-22T10:05:44;11.88;;;10.77;;
16199;SDS011;8207;52.494;4.654;2023-06-22T10:08:11;11.95;;;8.93;;
16199;SDS011;8207;52.494;4.654;2023-06-22T10:10:38;12.05;;;10.25;;
16199;SDS011;8207;52.494;4.654;2023-06-22T10:13:07;10.05;;;9.15;;
16199;SDS011;8207;52.494;4.654;2023-06-22T10:15:36;9.90;;;8.75;;
16199;SDS011;8207;52.494;4.654;2023-06-22T10:18:04;11.23;;;8.48;;
16199;SDS011;8207;52.494;4.654;2023-06-22T10:20:33;11.18;;;8.90;;
16199;SDS011;8207;52.494;4.654;2023-06-22T10:23:01;10.05;;;9.15;;
16199;SDS011;8207;52.494;4.654;2023-06-22T10:25:28;9.30;;;7.95;;
16199;SDS011;8207;52.494;4.654;2023-06-22T10:27:55;8.57;;;7.78;;
16199;SDS011;8207;52.494;4.654;2023-06-22T10:30:22;11.45;;;9.23;;
16199;SDS011;8207;52.494;4.654;2023-06-22T10:32:49;11.05;;;8.77;;
16199;SDS011;8207;52.494;4.654;2023-06-22T10:35:16;8.05;;;6.80;;
16199;SDS011;8207;52.494;4.654;2023-06-22T10:37:45;9.63;;;8.35;;
16199;SDS011;8207;52.494;4.654;2023-06-22T10:40:13;9.18;;;7.10;;
16199;SDS011;8207;52.494;4.654;2023-06-22T10:42:41;6.88;;;6.18;;
16199;SDS011;8207;52.494;4.654;2023-06-22T10:45:08;4.05;;;3.55;;
16199;SDS011;8207;52.494;4.654;2023-06-22T10:47:36;4.85;;;3.63;;
16199;SDS011;8207;52.494;4.654;2023-06-22T10:50:03;5.85;;;5.00;;
16199;SDS011;8207;52.494;4.654;2023-06-22T10:52:31;6.43;;;5.82;;
16199;SDS011;8207;52.494;4.654;2023-06-22T10:55:00;7.43;;;6.65;;
16199;SDS011;8207;52.494;4.654;2023-06-22T10:57:26;6.40;;;5.80;;
16199;SDS011;8207;52.494;4.654;2023-06-22T10:59:54;6.55;;;5.90;;
16199;SDS011;8207;52.494;4.654;2023-06-22T11:02:20;7.80;;;6.70;;
16199;SDS011;8207;52.494;4.654;2023-06-22T11:04:47;21.10;;;9.75;;
16199;SDS011;8207;52.494;4.654;2023-06-22T11:07:15;11.90;;;8.43;;
16199;SDS011;8207;52.494;4.654;2023-06-22T11:09:42;9.32;;;8.43;;
16199;SDS011;8207;52.494;4.654;2023-06-22T11:12:11;10.10;;;9.00;;
16199;SDS011;8207;52.494;4.654;2023-06-22T11:14:38;11.55;;;9.90;;
16199;SDS011;8207;52.494;4.654;2023-06-22T11:17:05;9.35;;;8.45;;
16199;SDS011;8207;52.494;4.654;2023-06-22T11:19:32;11.52;;;10.38;;
16199;SDS011;8207;52.494;4.654;2023-06-22T11:21:59;15.30;;;12.93;;
16199;SDS011;8207;52.494;4.654;2023-06-22T11:24:26;12.45;;;10.80;;
16199;SDS011;8207;52.494;4.654;2023-06-22T11:26:54;10.63;;;9.52;;
16199;SDS011;8207;52.494;4.654;2023-06-22T11:29:23;12.30;;;10.48;;
16199;SDS011;8207;52.494;4.654;2023-06-22T11:31:50;11.38;;;9.30;;
16199;SDS011;8207;52.494;4.654;2023-06-22T11:34:17;10.45;;;8.40;;
16199;SDS011;8207;52.494;4.654;2023-06-22T11:36:44;7.65;;;6.65;;
16199;SDS011;8207;52.494;4.654;2023-06-22T11:39:12;5.95;;;5.35;;
16199;SDS011;8207;52.494;4.654;2023-06-22T11:41:39;6.95;;;4.65;;
16199;SDS011;8207;52.494;4.654;2023-06-22T11:44:06;6.75;;;5.57;;
16199;SDS011;8207;52.494;4.654;2023-06-22T11:46:35;8.13;;;6.63;;
16199;SDS011;8207;52.494;4.654;2023-06-22T11:49:02;7.45;;;6.10;;
16199;SDS011;8207;52.494;4.654;2023-06-22T11:51:29;7.50;;;6.55;;
16199;SDS011;8207;52.494;4.654;2023-06-22T11:53:57;8.70;;;7.65;;
16199;SDS011;8207;52.494;4.654;2023-06-22T11:56:24;8.43;;;7.63;;
16199;SDS011;8207;52.494;4.654;2023-06-22T11:58:52;6.22;;;5.63;;
16199;SDS011;8207;52.494;4.654;2023-06-22T12:01:20;9.55;;;6.68;;
16199;SDS011;8207;52.494;4.654;2023-06-22T12:03:48;11.35;;;10.20;;
16199;SDS011;8207;52.494;4.654;2023-06-22T12:06:16;12.02;;;10.82;;
16199;SDS011;8207;52.494;4.654;2023-06-22T12:08:43;13.57;;;11.18;;
16199;SDS011;8207;52.494;4.654;2023-06-22T12:11:10;11.50;;;10.35;;
16199;SDS011;8207;52.494;4.654;2023-06-22T12:13:37;9.75;;;8.30;;
16199;SDS011;8207;52.494;4.654;2023-06-22T12:16:04;11.57;;;10.38;;
16199;SDS011;8207;52.494;4.654;2023-06-22T12:18:32;12.00;;;8.75;;
16199;SDS011;8207;52.494;4.654;2023-06-22T12:21:01;11.77;;;9.73;;
16199;SDS011;8207;52.494;4.654;2023-06-22T12:23:28;11.77;;;9.57;;
16199;SDS011;8207;52.494;4.654;2023-06-22T12:25:55;13.48;;;10.98;;
16199;SDS011;8207;52.494;4.654;2023-06-22T12:28:22;10.38;;;9.27;;
16199;SDS011;8207;52.494;4.654;2023-06-22T12:30:49;12.57;;;11.13;;
16199;SDS011;8207;52.494;4.654;2023-06-22T12:33:16;11.88;;;10.32;;
16199;SDS011;8207;52.494;4.654;2023-06-22T12:35:43;11.70;;;9.65;;
16199;SDS011;8207;52.494;4.654;2023-06-22T12:38:13;13.48;;;11.00;;
16199;SDS011;8207;52.494;4.654;2023-06-22T12:40:40;10.15;;;9.07;;
16199;SDS011;8207;52.494;4.654;2023-06-22T12:43:06;12.35;;;10.98;;
16199;SDS011;8207;52.494;4.654;2023-06-22T12:45:33;11.82;;;10.30;;
16199;SDS011;8207;52.494;4.654;2023-06-22T12:48:01;11.55;;;10.35;;
16199;SDS011;8207;52.494;4.654;2023-06-22T12:50:28;10.65;;;9.40;;
16199;SDS011;8207;52.494;4.654;2023-06-22T12:52:55;11.43;;;10.43;;
16199;SDS011;8207;52.494;4.654;2023-06-22T12:55:23;10.38;;;9.13;;
16199;SDS011;8207;52.494;4.654;2023-06-22T12:57:50;10.45;;;9.38;;
16199;SDS011;8207;52.494;4.654;2023-06-22T13:00:17;9.38;;;8.52;;
16199;SDS011;8207;52.494;4.654;2023-06-22T13:02:45;10.68;;;9.15;;
16199;SDS011;8207;52.494;4.654;2023-06-22T13:05:12;8.80;;;7.90;;
16199;SDS011;8207;52.494;4.654;2023-06-22T13:07:39;9.73;;;8.73;;
16199;SDS011;8207;52.494;4.654;2023-06-22T13:10:07;10.52;;;9.43;;
16199;SDS011;8207;52.494;4.654;2023-06-22T13:12:36;10.27;;;8.23;;
16199;SDS011;8207;52.494;4.654;2023-06-22T13:15:03;11.35;;;9.38;;
16199;SDS011;8207;52.494;4.654;2023-06-22T13:17:31;10.48;;;9.40;;
16199;SDS011;8207;52.494;4.654;2023-06-22T13:19:58;8.50;;;7.55;;
16199;SDS011;8207;52.494;4.654;2023-06-22T13:22:28;10.55;;;8.00;;
16199;SDS011;8207;52.494;4.654;2023-06-22T13:24:56;9.73;;;7.57;;
16199;SDS011;8207;52.494;4.654;2023-06-22T13:27:23;7.88;;;6.38;;
16199;SDS011;8207;52.494;4.654;2023-06-22T13:29:52;8.73;;;7.82;;
16199;SDS011;8207;52.494;4.654;2023-06-22T13:32:19;7.68;;;6.70;;
16199;SDS011;8207;52.494;4.654;2023-06-22T13:34:46;9.70;;;7.72;;
16199;SDS011;8207;52.494;4.654;2023-06-22T13:37:13;8.52;;;7.00;;
16199;SDS011;8207;52.494;4.654;2023-06-22T13:39:40;12.63;;;7.55;;
16199;SDS011;8207;52.494;4.654;2023-06-22T13:42:07;9.18;;;7.72;;
16199;SDS011;8207;52.494;4.654;2023-06-22T13:44:34;8.55;;;7.07;;
16199;SDS011;8207;52.494;4.654;2023-06-22T13:47:03;9.02;;;6.97;;
16199;SDS011;8207;52.494;4.654;2023-06-22T13:49:31;9.10;;;7.45;;
16199;SDS011;8207;52.494;4.654;2023-06-22T13:51:58;6.68;;;5.95;;
16199;SDS011;8207;52.494;4.654;2023-06-22T13:54:25;7.07;;;6.38;;
16199;SDS011;8207;52.494;4.654;2023-06-22T13:56:52;6.60;;;5.88;;
16199;SDS011;8207;52.494;4.654;2023-06-22T13:59:19;8.52;;;7.40;;
16199;SDS011;8207;52.494;4.654;2023-06-22T14:01:46;7.07;;;5.90;;
16199;SDS011;8207;52.494;4.654;2023-06-22T14:04:15;7.80;;;6.72;;
16199;SDS011;8207;52.494;4.654;2023-06-22T14:06:42;7.10;;;6.40;;
16199;SDS011;8207;52.494;4.654;2023-06-22T14:09:09;8.30;;;5.90;;
16199;SDS011;8207;52.494;4.654;2023-06-22T14:11:36;6.70;;;5.57;;
16199;SDS011;8207;52.494;4.654;2023-06-22T14:14:03;8.85;;;6.50;;
16199;SDS011;8207;52.494;4.654;2023-06-22T14:16:30;7.40;;;6.70;;
16199;SDS011;8207;52.494;4.654;2023-06-22T14:18:57;7.55;;;6.75;;
16199;SDS011;8207;52.494;4.654;2023-06-22T14:21:26;5.30;;;4.90;;
16199;SDS011;8207;52.494;4.654;2023-06-22T14:23:53;7.55;;;6.10;;
16199;SDS011;8207;52.494;4.654;2023-06-22T14:26:20;6.82;;;6.13;;
16199;SDS011;8207;52.494;4.654;2023-06-22T14:28:48;8.05;;;7.25;;
16199;SDS011;8207;52.494;4.654;2023-06-22T14:31:15;8.02;;;6.45;;
16199;SDS011;8207;52.494;4.654;2023-06-22T14:33:45;8.18;;;7.03;;
16199;SDS011;8207;52.494;4.654;2023-06-22T14:36:13;8.80;;;6.60;;
16199;SDS011;8207;52.494;4.654;2023-06-22T14:38:41;6.85;;;6.22;;
16199;SDS011;8207;52.494;4.654;2023-06-22T14:41:08;7.70;;;6.15;;
16199;SDS011;8207;52.494;4.654;2023-06-22T14:43:36;9.75;;;7.03;;